createdAt,value
2019-03-13T00:00:15.307Z,978.65
2019-03-13T00:01:15.297Z,978.68
2019-03-13T00:02:15.411Z,978.61
2019-03-13T00:03:15.278Z,978.66
2019-03-13T00:04:15.288Z,978.66
2019-03-13T00:05:15.254Z,978.69
2019-03-13T00:06:15.242Z,978.70
2019-03-13T00:07:15.235Z,978.72
2019-03-13T00:08:15.219Z,978.79
2019-03-13T00:09:15.259Z,978.82
2019-03-13T00:10:15.203Z,978.83
2019-03-13T00:11:15.191Z,978.84
2019-03-13T00:12:15.179Z,978.90
2019-03-13T00:13:15.163Z,978.85
2019-03-13T00:14:15.178Z,978.88
2019-03-13T00:15:15.145Z,978.86
2019-03-13T00:16:15.142Z,978.93
2019-03-13T00:17:15.125Z,978.83
2019-03-13T00:18:15.125Z,978.94
2019-03-13T00:19:15.125Z,978.93
2019-03-13T00:20:15.094Z,978.84
2019-03-13T00:21:15.080Z,978.93
2019-03-13T00:22:15.067Z,978.91
2019-03-13T00:23:15.111Z,978.96
2019-03-13T00:24:15.104Z,978.82
2019-03-13T00:25:15.041Z,978.92
2019-03-13T00:26:15.023Z,978.94
2019-03-13T00:27:15.027Z,978.94
2019-03-13T00:28:15.002Z,978.88
2019-03-13T00:29:15.003Z,978.90
2019-03-13T00:30:15.008Z,978.97
2019-03-13T00:31:14.974Z,978.97
2019-03-13T00:32:14.959Z,978.98
2019-03-13T00:33:14.952Z,978.91
2019-03-13T00:34:14.939Z,979.10
2019-03-13T00:35:14.950Z,979.01
2019-03-13T00:36:14.918Z,979.01
2019-03-13T00:37:14.903Z,978.91
2019-03-13T00:38:14.894Z,979.04
2019-03-13T00:39:14.896Z,979.00
2019-03-13T00:40:14.907Z,979.03
2019-03-13T00:41:14.866Z,979.03
2019-03-13T00:42:14.857Z,979.02
2019-03-13T00:43:14.841Z,979.10
2019-03-13T00:44:14.836Z,979.03
2019-03-13T00:45:14.847Z,979.17
2019-03-13T00:46:14.817Z,979.02
2019-03-13T00:47:14.793Z,979.10
2019-03-13T00:48:14.784Z,979.11
2019-03-13T00:49:14.830Z,979.15
2019-03-13T00:50:14.805Z,979.01
2019-03-13T00:51:14.755Z,979.20
2019-03-13T00:52:14.741Z,979.12
2019-03-13T00:53:14.733Z,979.12
2019-03-13T00:54:14.719Z,979.17
2019-03-13T00:55:14.735Z,979.13
2019-03-13T00:56:14.699Z,979.15
2019-03-13T00:57:14.689Z,979.10
2019-03-13T00:58:14.672Z,979.14
2019-03-13T00:59:14.663Z,979.07
2019-03-13T01:00:14.675Z,979.16
2019-03-13T01:01:14.642Z,979.08
2019-03-13T01:02:14.632Z,979.16
2019-03-13T01:03:14.624Z,979.18
2019-03-13T01:04:14.609Z,979.09
2019-03-13T01:05:14.629Z,979.18
2019-03-13T01:06:14.591Z,979.17
2019-03-13T01:07:14.588Z,979.10
2019-03-13T01:08:14.579Z,979.17
2019-03-13T01:09:14.555Z,979.08
2019-03-13T01:10:14.581Z,979.15
2019-03-13T01:11:14.533Z,979.17
2019-03-13T01:12:14.526Z,979.16
2019-03-13T01:13:14.510Z,979.20
2019-03-13T01:14:14.499Z,979.20
2019-03-13T01:15:14.527Z,979.23
2019-03-13T01:16:14.480Z,979.21
2019-03-13T01:17:14.470Z,979.22
2019-03-13T01:18:14.458Z,979.18
2019-03-13T01:19:14.445Z,979.25
2019-03-13T01:20:14.436Z,979.25
2019-03-13T01:21:14.452Z,979.22
2019-03-13T01:22:14.415Z,979.20
2019-03-13T01:23:14.458Z,979.21
2019-03-13T01:24:14.414Z,979.19
2019-03-13T01:25:14.382Z,979.20
2019-03-13T01:26:14.433Z,979.24
2019-03-13T01:27:14.357Z,979.22
2019-03-13T01:28:14.350Z,979.22
2019-03-13T01:29:14.347Z,979.23
2019-03-13T01:30:14.327Z,979.21
2019-03-13T01:31:14.341Z,979.22
2019-03-13T01:32:14.312Z,979.23
2019-03-13T01:33:14.296Z,979.21
2019-03-13T01:34:14.283Z,979.26
2019-03-13T01:35:14.276Z,979.20
2019-03-13T01:36:14.291Z,979.23
2019-03-13T01:37:14.251Z,979.20
2019-03-13T01:38:14.241Z,979.24
2019-03-13T01:39:14.229Z,979.26
2019-03-13T01:40:14.221Z,979.22
2019-03-13T01:41:14.236Z,979.24
2019-03-13T01:42:14.192Z,979.25
2019-03-13T01:43:14.185Z,979.26
2019-03-13T01:44:14.177Z,979.22
2019-03-13T01:45:14.160Z,979.26
2019-03-13T01:46:14.174Z,979.25
2019-03-13T01:47:14.138Z,979.20
2019-03-13T01:48:14.131Z,979.24
2019-03-13T01:49:14.118Z,979.27
2019-03-13T01:50:14.108Z,979.28
2019-03-13T01:51:14.120Z,979.21
2019-03-13T01:52:14.100Z,979.19
2019-03-13T01:53:14.078Z,979.21
2019-03-13T01:54:14.068Z,979.24
2019-03-13T01:55:14.053Z,979.21
2019-03-13T01:56:14.068Z,979.22
2019-03-13T01:57:14.034Z,979.24
2019-03-13T01:58:14.025Z,979.27
2019-03-13T01:59:14.009Z,979.33
2019-03-13T02:00:14.005Z,979.31
2019-03-13T02:01:14.012Z,979.33
2019-03-13T02:02:13.978Z,979.28
2019-03-13T02:03:13.973Z,979.29
2019-03-13T02:04:13.956Z,979.29
2019-03-13T02:05:13.944Z,979.30
2019-03-13T02:06:13.962Z,979.29
2019-03-13T02:07:13.921Z,979.30
2019-03-13T02:08:13.920Z,979.30
2019-03-13T02:09:13.903Z,979.29
2019-03-13T02:10:13.886Z,979.28
2019-03-13T02:11:13.915Z,979.27
2019-03-13T02:12:13.869Z,979.36
2019-03-13T02:13:13.859Z,979.35
2019-03-13T02:14:13.849Z,979.29
2019-03-13T02:15:13.832Z,979.35
2019-03-13T02:16:13.823Z,979.31
2019-03-13T02:17:13.837Z,979.38
2019-03-13T02:18:13.814Z,979.40
2019-03-13T02:19:13.826Z,979.30
2019-03-13T02:20:13.789Z,979.32
2019-03-13T02:21:13.785Z,979.28
2019-03-13T02:22:13.805Z,979.28
2019-03-13T02:23:13.748Z,979.18
2019-03-13T02:24:13.743Z,979.28
2019-03-13T02:25:13.744Z,979.34
2019-03-13T02:26:13.733Z,979.27
2019-03-13T02:27:13.730Z,979.28
2019-03-13T02:28:13.693Z,979.22
2019-03-13T02:29:13.685Z,979.23
2019-03-13T02:30:13.669Z,979.21
2019-03-13T02:31:13.695Z,979.21
2019-03-13T02:32:13.676Z,979.18
2019-03-13T02:33:13.637Z,979.14
2019-03-13T02:34:13.625Z,979.18
2019-03-13T02:35:13.614Z,979.13
2019-03-13T02:36:13.610Z,979.09
2019-03-13T02:37:13.623Z,979.09
2019-03-13T02:38:13.587Z,979.09
2019-03-13T02:39:13.569Z,979.10
2019-03-13T02:40:13.560Z,979.08
2019-03-13T02:41:13.546Z,979.10
2019-03-13T02:42:13.564Z,979.05
2019-03-13T02:43:13.663Z,979.01
2019-03-13T02:44:13.516Z,979.00
2019-03-13T02:45:13.505Z,979.02
2019-03-13T02:46:13.501Z,979.06
2019-03-13T02:47:13.515Z,979.03
2019-03-13T02:48:13.470Z,978.99
2019-03-13T02:49:13.464Z,979.03
2019-03-13T02:50:13.448Z,979.04
2019-03-13T02:51:13.543Z,979.03
2019-03-13T02:52:13.452Z,978.96
2019-03-13T02:53:13.416Z,979.00
2019-03-13T02:54:13.405Z,978.97
2019-03-13T02:55:13.486Z,978.98
2019-03-13T02:56:13.382Z,979.01
2019-03-13T02:57:13.403Z,979.00
2019-03-13T02:58:13.362Z,979.05
2019-03-13T02:59:13.348Z,979.05
2019-03-13T03:00:13.342Z,979.12
2019-03-13T03:01:13.351Z,979.11
2019-03-13T03:02:13.337Z,979.12
2019-03-13T03:03:13.305Z,979.08
2019-03-13T03:04:13.299Z,979.07
2019-03-13T03:05:13.285Z,979.10
2019-03-13T03:06:13.278Z,979.07
2019-03-13T03:07:13.318Z,979.04
2019-03-13T03:08:13.252Z,979.04
2019-03-13T03:09:13.245Z,979.04
2019-03-13T03:10:13.233Z,978.98
2019-03-13T03:11:13.221Z,978.99
2019-03-13T03:12:13.207Z,978.99
2019-03-13T03:13:13.228Z,979.00
2019-03-13T03:14:13.185Z,979.04
2019-03-13T03:15:13.182Z,978.99
2019-03-13T03:16:13.162Z,978.93
2019-03-13T03:17:13.150Z,979.02
2019-03-13T03:18:13.162Z,979.03
2019-03-13T03:19:13.145Z,979.01
2019-03-13T03:20:13.116Z,979.09
2019-03-13T03:21:13.105Z,979.01
2019-03-13T03:22:13.098Z,979.00
2019-03-13T03:23:13.109Z,979.01
2019-03-13T03:24:13.072Z,978.97
2019-03-13T03:25:13.064Z,978.99
2019-03-13T03:26:13.059Z,979.03
2019-03-13T03:27:13.039Z,979.06
2019-03-13T03:28:13.052Z,979.06
2019-03-13T03:29:13.016Z,979.01
2019-03-13T03:30:13.009Z,979.06
2019-03-13T03:31:13.005Z,979.05
2019-03-13T03:32:13.206Z,979.00
2019-03-13T03:33:13.005Z,978.99
2019-03-13T03:34:12.963Z,979.01
2019-03-13T03:35:13.025Z,979.02
2019-03-13T03:36:12.946Z,978.97
2019-03-13T03:37:12.939Z,978.98
2019-03-13T03:38:12.987Z,979.06
2019-03-13T03:39:12.905Z,979.04
2019-03-13T03:40:12.898Z,979.04
2019-03-13T03:41:12.885Z,979.06
2019-03-13T03:42:12.871Z,979.03
2019-03-13T03:43:12.888Z,979.02
2019-03-13T03:44:12.849Z,978.97
2019-03-13T03:45:12.894Z,978.97
2019-03-13T03:46:12.864Z,978.90
2019-03-13T03:47:12.823Z,978.90
2019-03-13T03:48:12.827Z,978.91
2019-03-13T03:49:12.794Z,978.87
2019-03-13T03:50:12.791Z,978.87
2019-03-13T03:51:12.772Z,978.89
2019-03-13T03:52:12.772Z,978.83
2019-03-13T03:53:12.787Z,978.85
2019-03-13T03:54:12.742Z,978.85
2019-03-13T03:55:12.728Z,978.88
2019-03-13T03:56:12.715Z,978.86
2019-03-13T03:57:12.707Z,978.92
2019-03-13T03:58:12.694Z,978.91
2019-03-13T03:59:12.743Z,978.95
2019-03-13T04:00:12.672Z,978.97
2019-03-13T04:01:12.663Z,978.93
2019-03-13T04:02:12.649Z,978.99
2019-03-13T04:03:12.729Z,979.04
2019-03-13T04:04:12.649Z,978.98
2019-03-13T04:05:12.629Z,978.96
2019-03-13T04:06:12.603Z,978.90
2019-03-13T04:07:12.605Z,978.97
2019-03-13T04:08:12.588Z,979.02
2019-03-13T04:09:12.602Z,978.95
2019-03-13T04:10:12.560Z,978.95
2019-03-13T04:11:12.554Z,978.92
2019-03-13T04:12:12.541Z,978.98
2019-03-13T04:13:12.525Z,978.95
2019-03-13T04:14:12.570Z,978.95
2019-03-13T04:15:12.509Z,978.93
2019-03-13T04:16:12.494Z,978.99
2019-03-13T04:17:12.502Z,978.94
2019-03-13T04:18:12.470Z,978.93
2019-03-13T04:19:12.482Z,978.92
2019-03-13T04:20:12.454Z,979.00
2019-03-13T04:21:12.442Z,978.96
2019-03-13T04:22:12.431Z,979.09
2019-03-13T04:23:12.418Z,978.98
2019-03-13T04:24:12.431Z,978.98
2019-03-13T04:25:12.402Z,978.97
2019-03-13T04:26:13.160Z,978.99
2019-03-13T04:27:12.370Z,979.04
2019-03-13T04:28:12.362Z,978.94
2019-03-13T04:29:12.377Z,978.94
2019-03-13T04:30:12.336Z,979.01
2019-03-13T04:31:12.333Z,978.94
2019-03-13T04:32:12.322Z,978.98
2019-03-13T04:33:12.359Z,979.03
2019-03-13T04:34:12.314Z,978.98
2019-03-13T04:35:12.283Z,978.96
2019-03-13T04:36:12.270Z,979.00
2019-03-13T04:37:12.257Z,979.02
2019-03-13T04:38:12.274Z,979.03
2019-03-13T04:39:12.271Z,979.02
2019-03-13T04:40:12.226Z,978.97
2019-03-13T04:41:12.229Z,979.02
2019-03-13T04:42:12.218Z,979.07
2019-03-13T04:43:12.194Z,978.99
2019-03-13T04:44:12.213Z,978.93
2019-03-13T04:45:12.193Z,978.92
2019-03-13T04:46:12.162Z,978.87
2019-03-13T04:47:12.145Z,978.90
2019-03-13T04:48:12.138Z,978.98
2019-03-13T04:49:12.149Z,978.99
2019-03-13T04:50:12.117Z,978.97
2019-03-13T04:51:12.107Z,978.98
2019-03-13T04:52:12.094Z,978.98
2019-03-13T04:53:12.085Z,979.01
2019-03-13T04:54:12.111Z,978.99
2019-03-13T04:55:12.065Z,979.02
2019-03-13T04:56:12.046Z,979.05
2019-03-13T04:57:12.042Z,979.10
2019-03-13T04:58:12.026Z,979.02
2019-03-13T04:59:12.015Z,979.07
2019-03-13T05:00:12.027Z,979.01
2019-03-13T05:01:11.989Z,979.01
2019-03-13T05:02:11.981Z,979.02
2019-03-13T05:03:12.010Z,979.02
2019-03-13T05:04:11.966Z,978.96
2019-03-13T05:05:11.972Z,979.05
2019-03-13T05:06:12.002Z,979.02
2019-03-13T05:07:11.923Z,978.98
2019-03-13T05:08:11.917Z,979.01
2019-03-13T05:09:11.902Z,978.97
2019-03-13T05:10:11.917Z,978.93
2019-03-13T05:11:11.879Z,978.95
2019-03-13T05:12:11.868Z,978.91
2019-03-13T05:13:12.003Z,978.96
2019-03-13T05:14:11.847Z,978.94
2019-03-13T05:15:11.857Z,978.91
2019-03-13T05:16:11.825Z,978.86
2019-03-13T05:17:11.820Z,978.88
2019-03-13T05:18:11.800Z,978.93
2019-03-13T05:19:11.792Z,978.86
2019-03-13T05:20:13.786Z,978.84
2019-03-13T05:21:11.768Z,978.83
2019-03-13T05:22:11.763Z,978.83
2019-03-13T05:23:11.747Z,978.83
2019-03-13T05:24:11.735Z,978.80
2019-03-13T05:25:11.747Z,978.79
2019-03-13T05:26:11.717Z,978.87
2019-03-13T05:27:11.701Z,978.85
2019-03-13T05:28:11.695Z,978.83
2019-03-13T05:29:11.706Z,978.91
2019-03-13T05:30:11.706Z,978.85
2019-03-13T05:31:11.657Z,978.80
2019-03-13T05:32:11.647Z,978.84
2019-03-13T05:33:11.636Z,978.88
2019-03-13T05:34:11.629Z,978.74
2019-03-13T05:35:11.637Z,978.72
2019-03-13T05:36:11.604Z,978.81
2019-03-13T05:37:11.597Z,978.84
2019-03-13T05:38:11.579Z,978.74
2019-03-13T05:39:11.587Z,978.77
2019-03-13T05:40:11.582Z,978.83
2019-03-13T05:41:11.544Z,978.76
2019-03-13T05:42:11.534Z,978.77
2019-03-13T05:43:11.524Z,978.77
2019-03-13T05:44:11.517Z,978.78
2019-03-13T05:45:11.532Z,978.76
2019-03-13T05:46:11.496Z,978.69
2019-03-13T05:47:11.480Z,978.68
2019-03-13T05:48:11.469Z,978.70
2019-03-13T05:49:11.459Z,978.65
2019-03-13T05:50:11.450Z,978.68
2019-03-13T05:51:11.458Z,978.72
2019-03-13T05:52:11.424Z,978.77
2019-03-13T05:53:11.411Z,978.76
2019-03-13T05:54:11.401Z,978.64
2019-03-13T05:55:11.396Z,978.70
2019-03-13T05:56:11.404Z,978.74
2019-03-13T05:57:11.369Z,978.73
2019-03-13T05:58:11.355Z,978.73
2019-03-13T05:59:11.348Z,978.72
2019-03-13T06:00:11.335Z,978.70
2019-03-13T06:01:11.348Z,978.72
2019-03-13T06:02:11.315Z,978.80
2019-03-13T06:03:11.315Z,978.78
2019-03-13T06:04:11.290Z,978.77
2019-03-13T06:05:11.281Z,978.75
2019-03-13T06:06:11.290Z,978.74
2019-03-13T06:07:11.259Z,978.73
2019-03-13T06:08:11.249Z,978.73
2019-03-13T06:09:11.234Z,978.85
2019-03-13T06:10:11.227Z,978.78
2019-03-13T06:11:11.250Z,978.72
2019-03-13T06:12:11.205Z,978.76
2019-03-13T06:13:11.199Z,978.75
2019-03-13T06:14:11.178Z,978.76
2019-03-13T06:15:11.173Z,978.78
2019-03-13T06:16:11.204Z,978.80
2019-03-13T06:17:11.147Z,978.77
2019-03-13T06:18:11.136Z,978.80
2019-03-13T06:19:11.122Z,978.81
2019-03-13T06:20:11.114Z,978.77
2019-03-13T06:21:11.126Z,978.70
2019-03-13T06:22:11.092Z,978.81
2019-03-13T06:23:11.081Z,978.68
2019-03-13T06:24:11.116Z,978.71
2019-03-13T06:25:11.057Z,978.73
2019-03-13T06:26:11.078Z,978.71
2019-03-13T06:27:11.032Z,978.75
2019-03-13T06:28:11.053Z,978.68
2019-03-13T06:29:11.026Z,978.72
2019-03-13T06:30:11.031Z,978.79
2019-03-13T06:31:11.039Z,978.77
2019-03-13T06:32:11.014Z,978.84
2019-03-13T06:33:11.028Z,978.83
2019-03-13T06:34:11.679Z,978.91
2019-03-13T06:35:10.948Z,978.91
2019-03-13T06:36:10.933Z,978.83
2019-03-13T06:37:10.979Z,978.87
2019-03-13T06:38:10.909Z,978.90
2019-03-13T06:39:10.904Z,978.87
2019-03-13T06:40:10.889Z,978.81
2019-03-13T06:41:10.877Z,978.94
2019-03-13T06:42:10.899Z,978.89
2019-03-13T06:43:10.881Z,978.80
2019-03-13T06:44:10.865Z,978.91
2019-03-13T06:45:10.835Z,978.92
2019-03-13T06:46:10.826Z,978.84
2019-03-13T06:47:10.862Z,978.86
2019-03-13T06:48:10.799Z,978.88
2019-03-13T06:49:10.787Z,978.90
2019-03-13T06:50:10.807Z,978.95
2019-03-13T06:51:10.767Z,978.84
2019-03-13T06:52:10.814Z,978.87
2019-03-13T06:53:10.854Z,978.89
2019-03-13T06:54:10.755Z,978.86
2019-03-13T06:55:10.720Z,978.83
2019-03-13T06:56:10.716Z,978.85
2019-03-13T06:57:10.723Z,978.85
2019-03-13T06:58:10.687Z,978.81
2019-03-13T06:59:13.344Z,978.75
2019-03-13T07:00:10.698Z,978.84
2019-03-13T07:01:10.655Z,978.86
2019-03-13T07:02:10.730Z,978.85
2019-03-13T07:03:10.688Z,978.90
2019-03-13T07:04:10.637Z,978.95
2019-03-13T07:05:10.613Z,978.85
2019-03-13T07:06:10.603Z,978.93
2019-03-13T07:07:10.630Z,978.88
2019-03-13T07:08:10.605Z,978.87
2019-03-13T07:09:10.568Z,978.88
2019-03-13T07:10:10.564Z,978.93
2019-03-13T07:11:10.546Z,978.79
2019-03-13T07:12:10.539Z,978.89
2019-03-13T07:13:10.663Z,978.84
2019-03-13T07:14:10.528Z,978.84
2019-03-13T07:15:10.502Z,978.85
2019-03-13T07:16:10.496Z,978.84
2019-03-13T07:17:10.481Z,978.82
2019-03-13T07:18:10.490Z,978.75
2019-03-13T07:19:10.492Z,978.81
2019-03-13T07:20:10.449Z,978.74
2019-03-13T07:21:10.435Z,978.80
2019-03-13T07:22:10.449Z,978.81
2019-03-13T07:23:10.442Z,978.80
2019-03-13T07:24:10.446Z,978.78
2019-03-13T07:25:10.391Z,978.77
2019-03-13T07:26:10.433Z,978.86
2019-03-13T07:27:10.389Z,978.78
2019-03-13T07:28:10.449Z,978.81
2019-03-13T07:29:12.520Z,978.76
2019-03-13T07:30:10.341Z,978.81
2019-03-13T07:31:10.331Z,978.79
2019-03-13T07:32:10.318Z,978.76
2019-03-13T07:33:10.344Z,978.67
2019-03-13T07:34:10.293Z,978.85
2019-03-13T07:35:10.285Z,978.71
2019-03-13T07:36:10.268Z,978.77
2019-03-13T07:37:10.274Z,978.75
2019-03-13T07:38:10.373Z,978.73
2019-03-13T07:39:10.239Z,978.80
2019-03-13T07:40:10.224Z,978.71
2019-03-13T07:41:10.217Z,978.79
2019-03-13T07:42:10.202Z,978.86
2019-03-13T07:43:10.241Z,978.75
2019-03-13T07:44:10.188Z,978.69
2019-03-13T07:45:10.173Z,978.89
2019-03-13T07:46:10.159Z,978.80
2019-03-13T07:47:10.913Z,978.89
2019-03-13T07:48:10.249Z,978.81
2019-03-13T07:49:10.131Z,978.77
2019-03-13T07:50:10.116Z,978.69
2019-03-13T07:51:10.103Z,978.74
2019-03-13T07:52:10.103Z,978.84
2019-03-13T07:53:10.108Z,978.83
2019-03-13T07:54:10.070Z,978.76
2019-03-13T07:55:10.065Z,978.82
2019-03-13T07:56:10.059Z,978.79
2019-03-13T07:57:10.083Z,978.74
2019-03-13T07:58:10.063Z,978.76
2019-03-13T07:59:10.123Z,978.80
2019-03-13T08:00:10.010Z,978.86
2019-03-13T08:01:09.999Z,978.81
2019-03-13T08:02:10.960Z,978.82
2019-03-13T08:03:09.975Z,978.82
2019-03-13T08:04:10.010Z,978.84
2019-03-13T08:05:09.953Z,978.73
2019-03-13T08:06:09.971Z,978.74
2019-03-13T08:07:09.929Z,978.80
2019-03-13T08:08:09.920Z,978.68
2019-03-13T08:09:09.935Z,978.82
2019-03-13T08:10:09.894Z,978.79
2019-03-13T08:11:09.899Z,978.71
2019-03-13T08:12:09.904Z,978.81
2019-03-13T08:13:09.862Z,978.82
2019-03-13T08:14:09.983Z,978.78
2019-03-13T08:15:09.842Z,978.73
2019-03-13T08:16:09.829Z,978.78
2019-03-13T08:17:09.843Z,978.76
2019-03-13T08:18:09.835Z,978.73
2019-03-13T08:19:09.817Z,978.70
2019-03-13T08:20:09.794Z,978.77
2019-03-13T08:21:09.782Z,978.69
2019-03-13T08:22:09.772Z,978.71
2019-03-13T08:23:09.760Z,978.59
2019-03-13T08:24:09.780Z,978.58
2019-03-13T08:25:09.729Z,978.66
2019-03-13T08:26:09.730Z,978.79
2019-03-13T08:27:09.711Z,978.84
2019-03-13T08:28:09.698Z,978.90
2019-03-13T08:29:09.747Z,978.80
2019-03-13T08:30:09.690Z,978.82
2019-03-13T08:31:09.667Z,978.62
2019-03-13T08:32:09.651Z,978.63
2019-03-13T08:33:09.653Z,978.63
2019-03-13T08:34:09.674Z,978.68
2019-03-13T08:35:09.618Z,978.66
2019-03-13T08:36:09.610Z,978.76
2019-03-13T08:37:09.596Z,978.78
2019-03-13T08:38:09.589Z,978.61
2019-03-13T08:39:09.662Z,978.62
2019-03-13T08:40:09.569Z,978.70
2019-03-13T08:41:09.553Z,978.65
2019-03-13T08:42:09.543Z,978.57
2019-03-13T08:43:09.528Z,978.48
2019-03-13T08:44:09.540Z,978.46
2019-03-13T08:45:09.509Z,978.47
2019-03-13T08:46:09.498Z,978.42
2019-03-13T08:47:09.523Z,978.57
2019-03-13T08:48:09.524Z,978.51
2019-03-13T08:49:09.535Z,978.56
2019-03-13T08:50:09.461Z,978.51
2019-03-13T08:51:09.493Z,978.58
2019-03-13T08:52:09.470Z,978.52
2019-03-13T08:53:09.501Z,978.48
2019-03-13T08:54:09.504Z,978.40
2019-03-13T08:55:09.399Z,978.38
2019-03-13T08:56:09.389Z,978.40
2019-03-13T08:57:09.380Z,978.42
2019-03-13T08:58:09.420Z,978.45
2019-03-13T08:59:09.654Z,978.53
2019-03-13T09:00:09.346Z,978.38
2019-03-13T09:01:09.363Z,978.45
2019-03-13T09:02:09.325Z,978.36
2019-03-13T09:03:09.316Z,978.38
2019-03-13T09:04:09.362Z,978.33
2019-03-13T09:05:09.318Z,978.32
2019-03-13T09:06:09.323Z,978.41
2019-03-13T09:07:09.273Z,978.42
2019-03-13T09:08:09.275Z,978.38
2019-03-13T09:09:09.245Z,978.37
2019-03-13T09:10:09.280Z,978.29
2019-03-13T09:11:09.251Z,978.35
2019-03-13T09:12:09.227Z,978.40
2019-03-13T09:13:09.202Z,978.37
2019-03-13T09:14:09.201Z,978.41
2019-03-13T09:15:09.264Z,978.36
2019-03-13T09:16:09.185Z,978.50
2019-03-13T09:17:09.160Z,978.36
2019-03-13T09:18:09.211Z,978.35
2019-03-13T09:19:09.135Z,978.36
2019-03-13T09:20:09.152Z,978.33
2019-03-13T09:21:09.112Z,978.27
2019-03-13T09:22:09.103Z,978.31
2019-03-13T09:23:09.145Z,978.31
2019-03-13T09:24:09.133Z,978.20
2019-03-13T09:25:12.255Z,978.34
2019-03-13T09:26:09.057Z,978.46
2019-03-13T09:27:09.091Z,978.30
2019-03-13T09:28:09.050Z,978.23
2019-03-13T09:29:09.042Z,978.26
2019-03-13T09:30:09.038Z,978.23
2019-03-13T09:31:09.001Z,978.15
2019-03-13T09:32:09.023Z,978.10
2019-03-13T09:33:08.982Z,978.18
2019-03-13T09:34:08.972Z,978.23
2019-03-13T09:35:08.982Z,978.12
2019-03-13T09:36:08.955Z,978.24
2019-03-13T09:37:09.013Z,978.13
2019-03-13T09:38:08.954Z,978.29
2019-03-13T09:39:09.429Z,978.22
2019-03-13T09:40:08.932Z,978.20
2019-03-13T09:41:09.252Z,978.24
2019-03-13T09:42:09.298Z,978.20
2019-03-13T09:43:08.879Z,978.25
2019-03-13T09:44:08.866Z,978.11
2019-03-13T09:45:08.879Z,978.34
2019-03-13T09:46:08.840Z,978.33
2019-03-13T09:47:08.837Z,978.28
2019-03-13T09:48:08.821Z,978.24
2019-03-13T09:49:08.816Z,978.25
2019-03-13T09:50:08.824Z,978.25
2019-03-13T09:51:08.950Z,978.29
2019-03-13T09:52:08.776Z,978.31
2019-03-13T09:53:08.765Z,978.29
2019-03-13T09:54:08.770Z,978.32
2019-03-13T09:55:08.773Z,978.38
2019-03-13T09:56:08.741Z,978.28
2019-03-13T09:57:08.717Z,978.28
2019-03-13T09:58:08.703Z,978.30
2019-03-13T09:59:08.697Z,978.21
2019-03-13T10:00:08.685Z,978.27
2019-03-13T10:01:08.698Z,978.25
2019-03-13T10:02:08.660Z,978.26
2019-03-13T10:03:08.654Z,978.23
2019-03-13T10:04:08.647Z,978.22
2019-03-13T10:05:08.626Z,978.23
2019-03-13T10:06:08.662Z,978.29
2019-03-13T10:07:08.604Z,978.25
2019-03-13T10:08:08.591Z,978.20
2019-03-13T10:09:08.609Z,978.11
2019-03-13T10:10:08.570Z,978.27
2019-03-13T10:11:08.606Z,978.29
2019-03-13T10:12:08.549Z,978.19
2019-03-13T10:13:08.539Z,978.23
2019-03-13T10:14:08.531Z,978.33
2019-03-13T10:15:08.515Z,978.31
2019-03-13T10:16:08.520Z,978.23
2019-03-13T10:17:11.139Z,978.23
2019-03-13T10:18:08.487Z,978.19
2019-03-13T10:19:08.469Z,978.23
2019-03-13T10:20:08.460Z,978.15
2019-03-13T10:21:08.475Z,978.19
2019-03-13T10:22:08.492Z,978.23
2019-03-13T10:23:08.489Z,978.23
2019-03-13T10:24:08.447Z,978.14
2019-03-13T10:25:08.438Z,978.14
2019-03-13T10:26:08.393Z,978.16
2019-03-13T10:27:08.409Z,978.24
2019-03-13T10:28:08.370Z,978.09
2019-03-13T10:29:08.381Z,978.14
2019-03-13T10:30:08.351Z,978.13
2019-03-13T10:31:08.341Z,978.09
2019-03-13T10:32:08.352Z,978.04
2019-03-13T10:33:08.323Z,978.21
2019-03-13T10:34:08.311Z,978.20
2019-03-13T10:35:08.299Z,977.97
2019-03-13T10:36:08.289Z,978.03
2019-03-13T10:37:08.308Z,978.02
2019-03-13T10:38:13.803Z,978.00
2019-03-13T10:39:09.251Z,978.11
2019-03-13T10:40:08.237Z,978.00
2019-03-13T10:41:08.241Z,978.01
2019-03-13T10:42:08.240Z,977.96
2019-03-13T10:43:08.209Z,977.97
2019-03-13T10:44:08.208Z,977.97
2019-03-13T10:45:08.252Z,977.99
2019-03-13T10:46:08.176Z,977.91
2019-03-13T10:47:08.189Z,977.96
2019-03-13T10:48:08.150Z,978.05
2019-03-13T10:49:08.137Z,977.94
2019-03-13T10:50:08.128Z,977.97
2019-03-13T10:51:08.127Z,977.81
2019-03-13T10:52:08.130Z,977.97
2019-03-13T10:53:08.095Z,977.67
2019-03-13T10:54:08.082Z,977.84
2019-03-13T10:55:08.098Z,977.81
2019-03-13T10:56:08.142Z,977.87
2019-03-13T10:57:08.119Z,977.85
2019-03-13T10:58:08.041Z,977.68
2019-03-13T10:59:08.083Z,977.69
2019-03-13T11:00:08.030Z,977.78
2019-03-13T11:01:08.026Z,977.73
2019-03-13T11:02:08.099Z,977.60
2019-03-13T11:03:08.007Z,977.64
2019-03-13T11:04:08.015Z,977.65
2019-03-13T11:05:07.958Z,977.59
2019-03-13T11:06:07.955Z,977.45
2019-03-13T11:07:07.945Z,977.55
2019-03-13T11:08:07.960Z,977.56
2019-03-13T11:09:07.917Z,977.75
2019-03-13T11:10:07.903Z,977.80
2019-03-13T11:11:07.943Z,977.67
2019-03-13T11:12:07.886Z,977.82
2019-03-13T11:13:07.902Z,977.71
2019-03-13T11:14:15.411Z,977.82
2019-03-13T11:15:08.848Z,977.74
2019-03-13T11:16:07.840Z,977.82
2019-03-13T11:17:07.828Z,978.05
2019-03-13T11:18:07.844Z,977.84
2019-03-13T11:19:07.867Z,977.89
2019-03-13T11:20:07.840Z,977.85
2019-03-13T11:21:07.852Z,977.81
2019-03-13T11:22:07.795Z,977.89
2019-03-13T11:23:07.803Z,977.84
2019-03-13T11:24:07.769Z,977.79
2019-03-13T11:25:07.739Z,977.93
2019-03-13T11:26:07.726Z,977.87
2019-03-13T11:27:07.716Z,977.94
2019-03-13T11:28:07.728Z,977.96
2019-03-13T11:29:07.727Z,977.95
2019-03-13T11:30:07.743Z,977.92
2019-03-13T11:31:07.678Z,977.83
2019-03-13T11:32:07.667Z,977.86
2019-03-13T11:33:07.681Z,977.93
2019-03-13T11:34:07.730Z,977.99
2019-03-13T11:35:07.630Z,978.00
2019-03-13T11:36:07.619Z,977.93
2019-03-13T11:37:07.631Z,977.83
2019-03-13T11:38:07.683Z,977.99
2019-03-13T11:39:07.588Z,977.98
2019-03-13T11:40:07.632Z,978.01
2019-03-13T11:41:07.595Z,978.00
2019-03-13T11:42:07.616Z,978.05
2019-03-13T11:43:07.581Z,977.99
2019-03-13T11:44:07.537Z,977.98
2019-03-13T11:45:07.578Z,977.95
2019-03-13T11:46:07.565Z,978.03
2019-03-13T11:47:07.545Z,977.96
2019-03-13T11:48:07.532Z,977.98
2019-03-13T11:49:07.484Z,977.97
2019-03-13T11:50:07.464Z,977.88
2019-03-13T11:51:07.450Z,977.94
2019-03-13T11:52:07.440Z,977.98
2019-03-13T11:53:07.473Z,977.96
2019-03-13T11:54:07.417Z,977.91
2019-03-13T11:55:07.411Z,978.05
2019-03-13T11:56:07.403Z,977.93
2019-03-13T11:57:07.421Z,977.86
2019-03-13T11:58:07.372Z,977.91
2019-03-13T11:59:07.390Z,977.84
2019-03-13T12:00:07.376Z,977.92
2019-03-13T12:01:07.342Z,977.76
2019-03-13T12:02:07.329Z,977.86
2019-03-13T12:03:07.321Z,977.80
2019-03-13T12:04:07.328Z,977.79
2019-03-13T12:05:07.344Z,977.74
2019-03-13T12:06:07.283Z,977.72
2019-03-13T12:07:07.275Z,977.86
2019-03-13T12:08:07.264Z,977.84
2019-03-13T12:09:07.280Z,977.75
2019-03-13T12:10:07.242Z,977.72
2019-03-13T12:11:07.231Z,977.76
2019-03-13T12:12:07.225Z,977.75
2019-03-13T12:13:10.249Z,977.73
2019-03-13T12:14:07.221Z,977.74
2019-03-13T12:15:07.194Z,977.63
2019-03-13T12:16:07.176Z,977.69
2019-03-13T12:17:07.162Z,977.69
2019-03-13T12:18:07.155Z,977.75
2019-03-13T12:19:07.165Z,977.62
2019-03-13T12:20:07.131Z,977.74
2019-03-13T12:21:07.118Z,977.67
2019-03-13T12:22:07.108Z,977.62
2019-03-13T12:23:07.097Z,977.74
2019-03-13T12:24:07.110Z,977.73
2019-03-13T12:25:07.080Z,977.68
2019-03-13T12:26:07.063Z,977.63
2019-03-13T12:27:07.071Z,977.57
2019-03-13T12:28:07.101Z,977.65